createdAt,value
2022-07-25T00:02:17.170Z,100199.19
2022-07-25T00:04:45.444Z,100198.88
2022-07-25T00:07:13.870Z,100201.56
2022-07-25T00:09:42.088Z,100202.56
2022-07-25T00:12:11.168Z,100195.88
2022-07-25T00:14:41.018Z,100201.91
2022-07-25T00:17:09.308Z,100202.25
2022-07-25T00:19:37.521Z,100212.13
2022-07-25T00:22:05.899Z,100219.31
2022-07-25T00:24:34.398Z,100225.72
2022-07-25T00:27:02.977Z,100217.22
2022-07-25T00:29:31.270Z,100220.38
2022-07-25T00:32:00.889Z,100220.94
2022-07-25T00:34:29.063Z,100215.84
2022-07-25T00:36:57.242Z,100220.50
2022-07-25T00:39:25.391Z,100232.22
2022-07-25T00:41:53.823Z,100226.63
2022-07-25T00:44:26.073Z,100227.44
2022-07-25T00:46:54.694Z,100231.63
2022-07-25T00:49:25.050Z,100229.50
2022-07-25T00:51:54.410Z,100233.94
2022-07-25T00:54:23.321Z,100226.38
2022-07-25T00:56:52.016Z,100236.59
2022-07-25T00:59:20.488Z,100237.78
2022-07-25T01:01:49.460Z,100236.00
2022-07-25T01:04:18.547Z,100227.75
2022-07-25T01:06:48.470Z,100223.72
2022-07-25T01:09:17.792Z,100227.75
2022-07-25T01:11:46.027Z,100223.47
2022-07-25T01:14:14.752Z,100224.97
2022-07-25T01:16:42.927Z,100229.50
2022-07-25T01:19:11.220Z,100234.50
2022-07-25T01:21:41.522Z,100222.09
2022-07-25T01:24:10.262Z,100228.13
2022-07-25T01:26:38.620Z,100225.59
2022-07-25T01:29:07.036Z,100230.22
2022-07-25T01:31:35.351Z,100231.25
2022-07-25T01:34:04.096Z,100227.78
2022-07-25T01:36:32.513Z,100230.81
2022-07-25T01:39:02.107Z,100229.97
2022-07-25T01:41:30.395Z,100238.81
2022-07-25T01:43:58.751Z,100232.53
2022-07-25T01:46:27.056Z,100238.22
2022-07-25T01:48:55.498Z,100230.81
2022-07-25T01:51:23.763Z,100240.44
2022-07-25T01:53:54.781Z,100242.28
2022-07-25T01:56:24.451Z,100243.91
2022-07-25T01:58:53.096Z,100243.66
2022-07-25T02:01:22.076Z,100242.03
2022-07-25T02:03:51.356Z,100242.03
2022-07-25T02:06:21.034Z,100252.59
2022-07-25T02:08:49.214Z,100239.63
2022-07-25T02:11:18.231Z,100241.47
2022-07-25T02:13:47.953Z,100242.84
2022-07-25T02:16:16.242Z,100242.28
2022-07-25T02:18:44.570Z,100241.00
2022-07-25T02:21:14.528Z,100243.31
2022-07-25T02:23:43.688Z,100240.44
2022-07-25T02:26:12.779Z,100243.56
2022-07-25T02:28:42.092Z,100231.50
2022-07-25T02:31:11.989Z,100239.81
2022-07-25T02:33:40.222Z,100247.38
2022-07-25T02:36:09.577Z,100258.06
2022-07-25T02:38:37.720Z,100257.00
2022-07-25T02:41:06.213Z,100262.34
2022-07-25T02:43:34.567Z,100262.34
2022-07-25T02:46:02.861Z,100263.72
2022-07-25T02:48:32.607Z,100252.38
2022-07-25T02:51:00.769Z,100261.06
2022-07-25T02:53:54.904Z,100254.56
2022-07-25T02:56:17.186Z,100252.03
2022-07-25T02:58:45.677Z,100244.22
2022-07-25T03:01:14.161Z,100247.25
2022-07-25T03:03:43.938Z,100237.41
2022-07-25T03:06:12.181Z,100233.22
2022-07-25T03:08:40.664Z,100235.41
2022-07-25T03:11:08.855Z,100232.19
2022-07-25T03:13:37.105Z,100229.84
2022-07-25T03:16:05.669Z,100229.03
2022-07-25T03:18:33.751Z,100216.63
2022-07-25T03:21:03.598Z,100223.59
2022-07-25T03:23:31.851Z,100210.03
2022-07-25T03:26:00.444Z,100213.25
2022-07-25T03:28:28.756Z,100207.38
2022-07-25T03:30:56.931Z,100214.56
2022-07-25T03:33:25.326Z,100218.84
2022-07-25T03:35:53.547Z,100227.28
2022-07-25T03:38:24.785Z,100223.50
2022-07-25T03:40:53.035Z,100222.31
2022-07-25T03:43:21.224Z,100224.63
2022-07-25T03:45:49.427Z,100222.31
2022-07-25T03:48:20.829Z,100226.84
2022-07-25T03:50:49.090Z,100228.47
2022-07-25T03:53:17.330Z,100229.16
2022-07-25T03:55:46.885Z,100219.19
2022-07-25T03:58:15.183Z,100226.13
2022-07-25T04:00:43.455Z,100220.91
2022-07-25T04:03:12.073Z,100222.31
2022-07-25T04:05:43.043Z,100228.91
2022-07-25T04:08:15.277Z,100223.38
2022-07-25T04:10:43.534Z,100233.00
2022-07-25T04:13:13.189Z,100225.91
2022-07-25T04:15:41.457Z,100238.22
2022-07-25T04:18:10.160Z,100231.25
2022-07-25T04:20:44.729Z,100241.13
2022-07-25T04:23:12.965Z,100246.44
2022-07-25T04:25:41.251Z,100248.50
2022-07-25T04:28:09.435Z,100254.53
2022-07-25T04:30:39.012Z,100247.38
2022-07-25T04:33:07.338Z,100248.06
2022-07-25T04:35:36.412Z,100254.09
2022-07-25T04:38:10.144Z,100252.00
2022-07-25T04:40:40.266Z,100252.81
2022-07-25T04:43:09.688Z,100253.16
2022-07-25T04:45:39.623Z,100254.34
2022-07-25T04:48:08.350Z,100252.72
2022-07-25T04:50:36.506Z,100253.28
2022-07-25T04:53:05.041Z,100255.94
2022-07-25T04:55:33.750Z,100247.59
2022-07-25T04:58:01.971Z,100258.03
2022-07-25T05:00:30.372Z,100249.81
2022-07-25T05:03:00.531Z,100259.06
2022-07-25T05:05:28.669Z,100259.66
2022-07-25T05:07:58.191Z,100266.16
2022-07-25T05:10:26.931Z,100268.03
2022-07-25T05:12:55.374Z,100273.94
2022-07-25T05:15:24.146Z,100282.16
2022-07-25T05:17:52.375Z,100284.84
2022-07-25T05:20:21.951Z,100278.81
2022-07-25T05:22:50.122Z,100283.31
2022-07-25T05:25:19.432Z,100296.28
2022-07-25T05:27:47.770Z,100295.38
2022-07-25T05:30:16.055Z,100291.56
2022-07-25T05:32:44.435Z,100285.66
2022-07-25T05:35:12.660Z,100294.69
2022-07-25T05:37:42.387Z,100289.47
2022-07-25T05:40:10.863Z,100299.47
2022-07-25T05:42:39.108Z,100302.94
2022-07-25T05:45:08.509Z,100312.34
2022-07-25T05:47:37.052Z,100321.16
2022-07-25T05:50:05.928Z,100316.19
2022-07-25T05:52:34.193Z,100321.28
2022-07-25T05:55:03.781Z,100328.84
2022-07-25T05:57:32.145Z,100331.31
2022-07-25T06:00:00.282Z,100348.94
2022-07-25T06:02:28.670Z,100353.88
2022-07-25T06:04:57.074Z,100364.91
2022-07-25T06:07:25.631Z,100372.56
2022-07-25T06:09:53.893Z,100388.19
2022-07-25T06:12:24.575Z,100392.00
2022-07-25T06:14:52.803Z,100411.59
2022-07-25T06:17:21.810Z,100421.69
2022-07-25T06:19:50.352Z,100417.72
2022-07-25T06:22:19.725Z,100428.53
2022-07-25T06:24:47.917Z,100421.53
2022-07-25T06:27:20.232Z,100433.75
2022-07-25T06:29:50.841Z,100440.31
2022-07-25T06:32:19.010Z,100436.94
2022-07-25T06:34:47.312Z,100459.50
2022-07-25T06:37:16.164Z,100461.13
2022-07-25T06:39:46.100Z,100467.16
2022-07-25T06:42:14.912Z,100483.25
2022-07-25T06:44:44.790Z,100487.41
2022-07-25T06:47:14.420Z,100506.78
2022-07-25T06:49:43.391Z,100504.47
2022-07-25T06:52:12.274Z,100513.34
2022-07-25T06:54:40.798Z,100515.22
2022-07-25T06:57:09.122Z,100523.81
2022-07-25T06:59:37.665Z,100543.03
2022-07-25T07:02:05.978Z,100542.06
2022-07-25T07:04:35.633Z,100551.84
2022-07-25T07:07:03.855Z,100556.94
2022-07-25T07:09:32.057Z,100554.53
2022-07-25T07:12:00.274Z,100543.31
2022-07-25T07:14:28.792Z,100550.72
2022-07-25T07:16:57.203Z,100555.63
2022-07-25T07:19:26.004Z,100562.44
2022-07-25T07:21:55.577Z,100562.69
2022-07-25T07:24:24.746Z,100574.13
2022-07-25T07:26:53.774Z,100579.16
2022-07-25T07:29:22.562Z,100579.06
2022-07-25T07:31:50.902Z,100589.63
2022-07-25T07:34:19.176Z,100590.22
2022-07-25T07:36:47.430Z,100591.63
2022-07-25T07:39:17.714Z,100597.06
2022-07-25T07:41:45.893Z,100604.25
2022-07-25T07:44:14.024Z,100613.34
2022-07-25T07:46:42.155Z,100603.41
2022-07-25T07:49:11.014Z,100621.31
2022-07-25T07:51:39.451Z,100615.84
2022-07-25T07:54:38.811Z,100627.34
2022-07-25T07:57:08.392Z,100637.03
2022-07-25T07:59:37.920Z,100638.75
2022-07-25T08:02:06.789Z,100636.66
2022-07-25T08:04:35.032Z,100655.72
2022-07-25T08:07:03.266Z,100658.84
2022-07-25T08:09:31.374Z,100668.44
2022-07-25T08:12:02.584Z,100669.25
2022-07-25T08:14:33.238Z,100668.91
2022-07-25T08:17:01.405Z,100672.09
2022-07-25T08:19:29.586Z,100689.84
2022-07-25T08:22:06.929Z,100700.47
2022-07-25T08:24:34.996Z,100695.59
2022-07-25T08:27:03.164Z,100694.69
2022-07-25T08:29:32.832Z,100702.69
2022-07-25T08:32:02.462Z,100708.47
2022-07-25T08:34:38.340Z,100711.91
2022-07-25T08:37:06.469Z,100717.50
2022-07-25T08:39:34.635Z,100714.53
2022-07-25T08:42:10.953Z,100719.66
2022-07-25T08:44:59.518Z,100717.63
2022-07-25T08:47:29.036Z,100723.38
2022-07-25T08:50:04.142Z,100731.25
2022-07-25T08:52:37.200Z,100739.38
2022-07-25T08:55:07.670Z,100749.31
2022-07-25T08:57:36.796Z,100760.75
2022-07-25T09:00:09.271Z,100754.22
2022-07-25T09:02:37.717Z,100752.78
2022-07-25T09:05:07.015Z,100768.25
2022-07-25T09:07:37.415Z,100762.53
2022-07-25T09:10:23.949Z,100770.41
2022-07-25T09:12:54.379Z,100783.91
2022-07-25T09:15:30.903Z,100783.09
2022-07-25T09:18:01.159Z,100784.66
2022-07-25T09:20:39.728Z,100784.72
2022-07-25T09:23:08.440Z,100792.88
2022-07-25T09:25:36.800Z,100799.88
2022-07-25T09:28:15.893Z,100808.09
2022-07-25T09:30:56.388Z,100814.03
2022-07-25T09:33:26.076Z,100815.81
2022-07-25T09:35:55.181Z,100819.00
2022-07-25T09:38:24.351Z,100824.66
2022-07-25T09:40:57.953Z,100827.91
2022-07-25T09:43:37.348Z,100827.28
2022-07-25T09:46:07.648Z,100835.13
2022-07-25T09:48:36.135Z,100841.19
2022-07-25T09:51:04.943Z,100848.78
2022-07-25T09:53:33.677Z,100864.16
2022-07-25T09:56:01.902Z,100868.69
2022-07-25T09:58:31.225Z,100861.28
2022-07-25T10:01:04.522Z,100856.31
2022-07-25T10:03:46.438Z,100867.41
2022-07-25T10:06:21.795Z,100863.25
2022-07-25T10:08:51.060Z,100867.44
2022-07-25T10:11:25.499Z,100871.88
2022-07-25T10:13:54.662Z,100888.06
2022-07-25T10:16:24.390Z,100893.78
2022-07-25T10:18:55.472Z,100903.75
2022-07-25T10:21:27.624Z,100911.78
2022-07-25T10:24:01.103Z,100920.97
2022-07-25T10:26:29.834Z,100923.50
2022-07-25T10:28:58.771Z,100944.19
2022-07-25T10:31:35.766Z,100940.91
2022-07-25T10:34:07.330Z,100941.94
2022-07-25T10:36:47.182Z,100956.69
2022-07-25T10:39:17.041Z,100964.81
2022-07-25T10:41:53.074Z,100964.34
2022-07-25T10:44:21.598Z,100964.03
2022-07-25T10:46:50.509Z,100968.44
2022-07-25T10:49:29.050Z,100965.47
2022-07-25T10:52:01.587Z,100969.69
2022-07-25T10:54:35.597Z,100972.38
2022-07-25T10:57:05.576Z,100980.28
2022-07-25T10:59:36.120Z,100980.59
2022-07-25T11:02:07.124Z,100989.31
2022-07-25T11:04:37.403Z,100997.97
2022-07-25T11:07:13.092Z,100996.72
2022-07-25T11:09:42.745Z,100994.88
2022-07-25T11:12:15.784Z,101006.91
2022-07-25T11:14:44.540Z,101010.22
2022-07-25T11:17:15.846Z,101023.00
2022-07-25T11:19:54.040Z,101019.44
2022-07-25T11:22:22.236Z,101032.22
2022-07-25T11:24:50.537Z,101047.47
2022-07-25T11:27:23.340Z,101054.22
2022-07-25T11:29:51.970Z,101056.91
2022-07-25T11:32:20.762Z,101057.22
2022-07-25T11:34:52.539Z,101068.25
2022-07-25T11:37:22.482Z,101067.59
2022-07-25T11:39:52.981Z,101074.06
2022-07-25T11:42:22.061Z,101081.94
2022-07-25T11:44:52.794Z,101096.53
2022-07-25T11:47:26.968Z,101095.47
2022-07-25T11:49:58.045Z,101100.53
2022-07-25T11:52:27.949Z,101096.09
2022-07-25T11:54:57.970Z,101092.28
2022-07-25T11:57:27.601Z,101099.69
2022-07-25T11:59:57.151Z,101105.56
2022-07-25T12:02:27.578Z,101103.59
2022-07-25T12:05:00.236Z,101123.31
2022-07-25T12:07:44.717Z,101124.13
2022-07-25T12:10:18.212Z,101127.59
2022-07-25T12:12:49.957Z,101132.63
2022-07-25T12:15:21.330Z,101133.06
2022-07-25T12:17:49.659Z,101133.53
2022-07-25T12:20:21.750Z,101143.94
2022-07-25T12:22:51.669Z,101141.16
2022-07-25T12:25:20.387Z,101144.31
2022-07-25T12:27:49.180Z,101150.16
2022-07-25T12:30:18.361Z,101149.66
2022-07-25T12:32:46.876Z,101160.59
2022-07-25T12:35:15.922Z,101176.22
2022-07-25T12:37:46.123Z,101186.75
2022-07-25T12:40:16.623Z,101195.50
2022-07-25T12:42:45.506Z,101189.94
2022-07-25T12:45:17.349Z,101189.47
2022-07-25T12:47:47.543Z,101186.06
2022-07-25T12:50:16.687Z,101181.78
2022-07-25T12:52:47.524Z,101184.41
2022-07-25T12:55:17.231Z,101186.03
2022-07-25T12:57:45.506Z,101197.09
2022-07-25T13:00:16.192Z,101192.88
2022-07-25T13:02:44.670Z,101199.59
2022-07-25T13:05:13.323Z,101199.84
2022-07-25T13:07:41.634Z,101193.94
2022-07-25T13:10:12.786Z,101194.84
2022-07-25T13:12:41.040Z,101226.84
2022-07-25T13:15:10.212Z,101223.22
2022-07-25T13:17:38.575Z,101219.84
2022-07-25T13:20:07.798Z,101238.16
2022-07-25T13:22:36.021Z,101235.47
2022-07-25T13:25:04.982Z,101240.75
2022-07-25T13:27:34.647Z,101248.69
2022-07-25T13:30:02.952Z,101252.75
2022-07-25T13:32:31.926Z,101250.19
2022-07-25T13:35:00.215Z,101263.09
2022-07-25T13:37:28.436Z,101265.53
2022-07-25T13:39:56.640Z,101275.66
2022-07-25T13:42:25.165Z,101268.31
2022-07-25T13:44:54.812Z,101256.59
2022-07-25T13:47:26.966Z,101266.66
2022-07-25T13:49:58.445Z,101271.22
2022-07-25T13:52:26.682Z,101282.88
2022-07-25T13:54:54.850Z,101282.28
2022-07-25T13:57:23.207Z,101288.59
2022-07-25T13:59:51.344Z,101292.00
2022-07-25T14:02:21.381Z,101287.66
2022-07-25T14:04:49.601Z,101291.75
2022-07-25T14:07:17.802Z,101291.59
2022-07-25T14:09:46.800Z,101294.84
2022-07-25T14:12:15.140Z,101301.16
2022-07-25T14:14:43.385Z,101314.72
2022-07-25T14:17:11.858Z,101316.00
2022-07-25T14:19:41.632Z,101320.72
2022-07-25T14:22:09.869Z,101326.22
2022-07-25T14:24:38.703Z,101316.06
2022-07-25T14:27:07.098Z,101327.25
2022-07-25T14:29:36.290Z,101341.28
2022-07-25T14:32:04.839Z,101340.59
2022-07-25T14:34:33.033Z,101345.75
2022-07-25T14:37:02.901Z,101343.84
2022-07-25T14:39:31.097Z,101363.34
2022-07-25T14:41:59.627Z,101366.50
2022-07-25T14:44:29.023Z,101357.03
2022-07-25T14:46:57.833Z,101358.97
2022-07-25T14:49:29.155Z,101370.09
2022-07-25T14:51:57.504Z,101359.25
2022-07-25T14:54:28.596Z,101372.22
2022-07-25T14:56:57.379Z,101374.34
2022-07-25T14:59:26.418Z,101375.19
2022-07-25T15:01:54.617Z,101378.31
2022-07-25T15:04:25.365Z,101376.94
2022-07-25T15:06:54.151Z,101381.38
2022-07-25T15:09:22.953Z,101382.19
2022-07-25T15:11:52.632Z,101386.28
2022-07-25T15:14:20.886Z,101379.25
2022-07-25T15:16:49.112Z,101385.69
2022-07-25T15:19:18.025Z,101388.97
2022-07-25T15:21:46.651Z,101397.72
2022-07-25T15:24:15.172Z,101405.44
2022-07-25T15:26:43.762Z,101412.78
2022-07-25T15:29:18.733Z,101424.47
2022-07-25T15:31:47.432Z,101426.56
2022-07-25T15:34:15.914Z,101420.28
2022-07-25T15:36:44.228Z,101434.25
2022-07-25T15:39:12.393Z,101430.97
2022-07-25T15:41:40.615Z,101444.63
2022-07-25T15:44:08.778Z,101436.31
2022-07-25T15:46:40.255Z,101443.03
2022-07-25T15:49:08.975Z,101447.38
2022-07-25T15:51:37.336Z,101449.72
2022-07-25T15:54:06.832Z,101460.47
2022-07-25T15:56:35.600Z,101461.03
2022-07-25T15:59:03.853Z,101461.03
2022-07-25T16:01:32.118Z,101465.81
2022-07-25T16:04:01.989Z,101465.88
2022-07-25T16:06:30.321Z,101465.34
2022-07-25T16:08:58.502Z,101461.66
2022-07-25T16:11:27.202Z,101470.38
2022-07-25T16:13:55.399Z,101478.31
2022-07-25T16:16:25.883Z,101486.22
2022-07-25T16:18:54.191Z,101478.94
2022-07-25T16:21:23.887Z,101487.00
2022-07-25T16:23:52.556Z,101483.97
2022-07-25T16:26:20.747Z,101502.00
2022-07-25T16:28:49.113Z,101491.13
2022-07-25T16:31:17.348Z,101505.34
2022-07-25T16:33:45.671Z,101507.22
2022-07-25T16:36:13.833Z,101497.47
2022-07-25T16:38:45.266Z,101507.31
2022-07-25T16:41:13.260Z,101507.38
2022-07-25T16:43:41.424Z,101500.50
2022-07-25T16:46:09.799Z,101508.03
2022-07-25T16:48:38.115Z,101508.84
2022-07-25T16:51:06.734Z,101521.41
2022-07-25T16:53:36.344Z,101515.56
2022-07-25T16:56:06.514Z,101523.91
2022-07-25T16:58:35.088Z,101531.63
2022-07-25T17:01:03.402Z,101521.72
2022-07-25T17:03:31.871Z,101526.81
2022-07-25T17:06:00.081Z,101527.78
2022-07-25T17:08:28.833Z,101519.00
2022-07-25T17:10:57.037Z,101533.25
2022-07-25T17:13:26.689Z,101536.78
2022-07-25T17:15:55.057Z,101537.50
2022-07-25T17:18:23.408Z,101534.28
2022-07-25T17:20:53.208Z,101540.94
2022-07-25T17:23:21.667Z,101556.19
2022-07-25T17:25:50.725Z,101559.47
2022-07-25T17:28:19.207Z,101561.97
2022-07-25T17:30:49.074Z,101561.41
2022-07-25T17:33:17.522Z,101567.81
2022-07-25T17:35:46.125Z,101575.72
2022-07-25T17:38:14.700Z,101581.91
2022-07-25T17:40:43.056Z,101582.59
2022-07-25T17:43:11.336Z,101585.53
2022-07-25T17:45:40.046Z,101592.34
2022-07-25T17:48:09.719Z,101598.94
2022-07-25T17:50:38.028Z,101611.72
2022-07-25T17:53:06.266Z,101618.13
2022-07-25T17:55:38.697Z,101621.63
2022-07-25T17:58:07.432Z,101626.78
2022-07-25T18:00:35.605Z,101629.47
2022-07-25T18:03:03.796Z,101631.50
2022-07-25T18:05:33.746Z,101625.13
2022-07-25T18:08:03.110Z,101635.63
2022-07-25T18:10:31.762Z,101635.63
2022-07-25T18:13:02.119Z,101639.72
2022-07-25T18:15:30.516Z,101634.19
2022-07-25T18:17:58.827Z,101639.75
2022-07-25T18:20:28.184Z,101647.78
2022-07-25T18:22:58.786Z,101648.00
2022-07-25T18:25:27.422Z,101656.44
2022-07-25T18:27:55.640Z,101660.78
2022-07-25T18:30:28.749Z,101664.50
2022-07-25T18:32:57.553Z,101667.59
2022-07-25T18:35:25.848Z,101676.78
2022-07-25T18:37:54.042Z,101676.34
2022-07-25T18:40:23.643Z,101677.34
2022-07-25T18:42:51.820Z,101684.97
2022-07-25T18:45:20.135Z,101671.63
2022-07-25T18:47:50.122Z,101673.06
2022-07-25T18:50:19.999Z,101676.34
2022-07-25T18:52:48.621Z,101674.94
2022-07-25T18:55:16.777Z,101681.50
2022-07-25T18:57:46.449Z,101684.78
2022-07-25T19:00:15.214Z,101682.94
2022-07-25T19:02:43.517Z,101688.94
2022-07-25T19:05:11.905Z,101690.78
2022-07-25T19:07:41.224Z,101687.06
2022-07-25T19:10:10.128Z,101687.88
2022-07-25T19:12:38.408Z,101694.66
2022-07-25T19:15:09.316Z,101699.59
2022-07-25T19:17:38.307Z,101703.91
2022-07-25T19:20:08.548Z,101707.81
2022-07-25T19:22:36.849Z,101709.47
2022-07-25T19:25:08.547Z,101713.56
2022-07-25T19:27:37.140Z,101715.59
2022-07-25T19:30:13.872Z,101710.25
2022-07-25T19:32:45.850Z,101716.56
2022-07-25T19:35:14.414Z,101719.41
2022-07-25T19:37:42.781Z,101729.00
2022-07-25T19:40:11.822Z,101728.09
2022-07-25T19:42:41.732Z,101744.66
2022-07-25T19:45:12.930Z,101753.06
2022-07-25T19:47:41.346Z,101759.81
2022-07-25T19:50:10.410Z,101756.31
2022-07-25T19:52:39.625Z,101759.81
2022-07-25T19:55:08.919Z,101763.13
2022-07-25T19:57:37.362Z,101773.19
2022-07-25T20:00:06.835Z,101778.09
2022-07-25T20:02:37.307Z,101773.81
2022-07-25T20:05:06.638Z,101770.53
2022-07-25T20:07:35.445Z,101770.16
2022-07-25T20:10:04.666Z,101776.69
2022-07-25T20:12:34.548Z,101776.06
2022-07-25T20:15:03.557Z,101780.41
2022-07-25T20:17:31.983Z,101780.31
2022-07-25T20:20:01.748Z,101784.56
2022-07-25T20:22:31.585Z,101793.34
2022-07-25T20:25:00.053Z,101795.00
2022-07-25T20:27:28.391Z,101798.66
2022-07-25T20:29:56.775Z,101809.34
2022-07-25T20:32:25.297Z,101800.28
2022-07-25T20:34:54.122Z,101802.53
2022-07-25T20:37:24.018Z,101800.28
2022-07-25T20:39:53.601Z,101803.00
2022-07-25T20:42:22.358Z,101795.25
2022-07-25T20:44:50.659Z,101812.53
2022-07-25T20:47:18.987Z,101811.28
2022-07-25T20:49:47.280Z,101810.91
2022-07-25T20:52:15.685Z,101808.25
2022-07-25T20:54:45.326Z,101820.78
2022-07-25T20:57:14.134Z,101813.59
2022-07-25T20:59:42.736Z,101807.88
2022-07-25T21:02:11.665Z,101827.19
2022-07-25T21:04:39.838Z,101824.50
2022-07-25T21:07:08.046Z,101827.56
2022-07-25T21:09:36.379Z,101835.75
2022-07-25T21:12:06.595Z,101825.91
2022-07-25T21:14:34.927Z,101838.00
2022-07-25T21:17:03.508Z,101842.88
2022-07-25T21:19:31.937Z,101836.31
2022-07-25T21:22:00.110Z,101842.63
2022-07-25T21:24:28.473Z,101849.97
2022-07-25T21:26:56.623Z,101844.19
2022-07-25T21:29:26.621Z,101840.50
2022-07-25T21:31:54.981Z,101842.72
2022-07-25T21:34:23.326Z,101844.56
2022-07-25T21:36:51.671Z,101841.19
2022-07-25T21:39:20.046Z,101840.31
2022-07-25T21:41:48.329Z,101843.94
2022-07-25T21:44:23.620Z,101846.72
2022-07-25T21:46:54.282Z,101846.44
2022-07-25T21:49:41.056Z,101847.69
2022-07-25T21:52:13.392Z,101843.63
2022-07-25T21:54:42.720Z,101845.06
2022-07-25T21:57:13.051Z,101841.84
2022-07-25T21:59:41.974Z,101840.63
2022-07-25T22:02:11.841Z,101852.13
2022-07-25T22:04:40.725Z,101852.31
2022-07-25T22:07:09.196Z,101861.88
2022-07-25T22:09:37.522Z,101859.63
2022-07-25T22:12:06.223Z,101863.28
2022-07-25T22:14:34.740Z,101867.41
2022-07-25T22:17:03.350Z,101868.34
2022-07-25T22:19:33.033Z,101878.03
2022-07-25T22:22:01.592Z,101878.84
2022-07-25T22:24:29.786Z,101887.66
2022-07-25T22:26:58.102Z,101896.84
2022-07-25T22:29:26.428Z,101890.44
2022-07-25T22:31:55.086Z,101888.41
2022-07-25T22:34:23.480Z,101892.09
2022-07-25T22:36:53.264Z,101899.47
2022-07-25T22:39:22.194Z,101895.97
2022-07-25T22:41:50.572Z,101900.66
2022-07-25T22:44:18.813Z,101906.06
2022-07-25T22:46:47.143Z,101901.09
2022-07-25T22:49:15.475Z,101899.00
2022-07-25T22:51:43.800Z,101896.69
2022-07-25T22:54:13.330Z,101890.50
2022-07-25T22:56:41.470Z,101900.22
2022-07-25T22:59:11.141Z,101898.16
2022-07-25T23:01:39.508Z,101898.16
2022-07-25T23:04:07.864Z,101900.22
2022-07-25T23:06:36.099Z,101902.69
2022-07-25T23:09:04.602Z,101897.88
2022-07-25T23:11:34.675Z,101907.06
2022-07-25T23:14:02.858Z,101907.00
2022-07-25T23:16:31.122Z,101910.00
2022-07-25T23:18:59.435Z,101928.66
2022-07-25T23:21:28.383Z,101908.81
2022-07-25T23:23:57.804Z,101914.63
2022-07-25T23:26:25.970Z,101913.78
2022-07-25T23:28:55.653Z,101921.50
2022-07-25T23:31:23.984Z,101923.06
2022-07-25T23:33:52.243Z,101919.94
2022-07-25T23:36:20.366Z,101923.16
2022-07-25T23:38:48.604Z,101928.69
2022-07-25T23:41:16.799Z,101922.88
2022-07-25T23:43:56.510Z,101931.69
2022-07-25T23:46:29.607Z,101931.25
2022-07-25T23:49:00.607Z,101915.63
2022-07-25T23:51:29.019Z,101920.34
2022-07-25T23:53:57.263Z,101927.50
2022-07-25T23:56:25.706Z,101927.03
2022-07-25T23:58:54.196Z,101937.84
